Terminal Aerodrome Forecast
Issued by NWS

Home | Current Version | Previous Version | Graphics & Text | Print | Product List | Glossary On
Versions: 1 2 3 4 5 6 7 8 9 10 11 12 13 14 15 16 17
000
FTUS42 KMHX 181734
TAFOAJ
TAF
KOAJ 181734Z 1818/1918 VRB04KT P6SM VCSH BKN045 BKN150
     FM190000 VRB03KT P6SM BKN250
     FM190500 00000KT 3SM BR FEW002 SCT250
     FM190800 00000KT 1SM BR SCT002 SCT250
     FM191230 00000KT P6SM SCT250
      AMD LTD TO CLD VIS AND WIND=

USA.gov is the U.S. government's official web portal to all federal, state and local government web resources and services.